Time;durP1;ratioP1;P1;durP2;ratioP2;P2;SDS_P1;SDS_P2;PMS_P1;PMS_P2;Temp;Humidity;BMP_temperature;BMP_pressure;BME280_temperature;BME280_humidity;BME280_pressure;Samples;Min_cycle;Max_cycle;Signal;HPM_P1;HPM_P2
2022/07/12 00:00:31;;;;;;;;;;;;;;;22.19;77.22;97363.92;612740;231;64862;-71
2022/07/12 00:02:58;;;;;;;;;;;;;;;22.19;77.24;97367.39;612772;231;64597;-71
2022/07/12 00:05:26;;;;;;;;;;;;;;;22.19;77.16;97370.07;612760;231;63721;-71
2022/07/12 00:07:53;;;;;;;;;;;;;;;22.19;77.09;97367.39;612796;231;64940;-71
2022/07/12 00:10:21;;;;;;;;;;;;;;;22.20;77.10;97377.02;612724;231;65193;-71
2022/07/12 00:12:48;;;;;;;;;;;;;;;22.19;77.16;97372.75;612832;231;62724;-71
2022/07/12 00:15:16;;;;;;;;;;;;;;;22.19;77.15;97372.75;613139;231;67119;-71
2022/07/12 00:17:43;;;;;;;;;;;;;;;22.19;77.13;97369.27;613097;231;67049;-71
2022/07/12 00:20:11;;;;;;;;;;;;;;;22.20;77.10;97368.98;613172;231;62843;-71
2022/07/12 00:22:39;;;;;;;;;;;;;;;22.18;77.18;97376.51;613125;231;67101;-71
2022/07/12 00:25:06;;;;;;;;;;;;;;;22.19;77.13;97378.10;613128;231;66899;-71
2022/07/12 00:27:34;;;;;;;;;;;;;;;22.18;77.07;97365.80;613154;231;64890;-71
2022/07/12 00:30:01;;;;;;;;;;;;;;;22.19;77.07;97366.59;613093;231;67761;-71
2022/07/12 00:32:29;;;;;;;;;;;;;;;22.19;77.07;97374.62;613151;231;68037;-72
2022/07/12 00:34:56;;;;;;;;;;;;;;;22.18;77.07;97373.83;613084;231;62780;-71
2022/07/12 00:37:24;;;;;;;;;;;;;;;22.17;77.01;97367.62;613113;231;67324;-71
2022/07/12 00:39:52;;;;;;;;;;;;;;;22.18;77.02;97373.83;613104;231;66986;-71
2022/07/12 00:42:19;;;;;;;;;;;;;;;22.17;77.04;97359.59;613128;231;65163;-71
2022/07/12 00:44:47;;;;;;;;;;;;;;;22.18;77.06;97360.45;613116;231;67026;-71
2022/07/12 00:47:22;;;;;;;;;;;;;;;22.18;77.00;97365.80;613128;231;66893;-71
2022/07/12 00:49:49;;;;;;;;;;;;;;;22.17;77.02;97359.59;612971;231;64868;-72
2022/07/12 00:52:17;;;;;;;;;;;;;;;22.17;77.06;97364.14;613160;231;64945;-69
2022/07/12 00:54:44;;;;;;;;;;;;;;;22.17;77.02;97358.79;613132;231;64836;-68
2022/07/12 00:57:12;;;;;;;;;;;;;;;22.18;76.98;97365.80;613092;231;62909;-68
2022/07/12 00:59:39;;;;;;;;;;;;;;;22.17;77.03;97358.79;613127;231;64931;-72
2022/07/12 01:02:07;;;;;;;;;;;;;;;22.16;77.08;97362.55;613111;231;64790;-72
2022/07/12 01:04:36;;;;;;;;;;;;;;;22.17;77.02;97364.14;613122;231;62717;-72
2022/07/12 01:07:04;;;;;;;;;;;;;;;22.16;77.03;97367.91;613116;231;67190;-72
2022/07/12 01:09:32;;;;;;;;;;;;;;;22.15;77.03;97367.11;613101;231;67115;-68
2022/07/12 01:11:59;;;;;;;;;;;;;;;22.15;77.08;97364.44;613141;231;65103;-68
2022/07/12 01:14:28;;;;;;;;;;;;;;;22.16;77.02;97357.20;612753;231;67113;-68
2022/07/12 01:16:56;;;;;;;;;;;;;;;22.16;77.04;97357.20;612793;231;67038;-68
2022/07/12 01:19:24;;;;;;;;;;;;;;;22.17;77.03;97361.47;612752;231;63016;-68
2022/07/12 01:21:53;;;;;;;;;;;;;;;22.16;77.03;97367.91;612737;231;64820;-68
2022/07/12 01:24:21;;;;;;;;;;;;;;;22.16;76.97;97354.52;612765;231;67408;-68
2022/07/12 01:26:50;;;;;;;;;;;;;;;22.15;77.00;97358.25;612737;231;64862;-68
2022/07/12 01:29:18;;;;;;;;;;;;;;;22.15;77.04;97355.58;612747;231;65063;-68
2022/07/12 01:31:46;;;;;;;;;;;;;;;22.15;77.01;97355.58;612777;231;64835;-72
2022/07/12 01:34:14;;;;;;;;;;;;;;;22.16;77.01;97359.88;612720;231;62741;-72
2022/07/12 01:36:41;;;;;;;;;;;;;;;22.15;76.96;97352.90;612782;231;64815;-72
2022/07/12 01:39:09;;;;;;;;;;;;;;;22.15;76.98;97355.58;612760;231;66876;-72
2022/07/12 01:41:37;;;;;;;;;;;;;;;22.14;76.91;97353.98;612796;231;63888;-72
2022/07/12 01:44:04;;;;;;;;;;;;;;;22.14;76.85;97351.30;612754;231;66526;-72
2022/07/12 01:46:32;;;;;;;;;;;;;;;22.14;76.94;97359.33;612789;231;66809;-72
2022/07/12 01:48:59;;;;;;;;;;;;;;;22.14;76.88;97354.78;612797;231;64930;-72
2022/07/12 01:51:27;;;;;;;;;;;;;;;22.14;76.80;97356.66;612745;231;67017;-72
2022/07/12 01:53:54;;;;;;;;;;;;;;;22.14;76.84;97353.98;612757;231;66732;-72
2022/07/12 01:56:22;;;;;;;;;;;;;;;22.13;76.85;97355.06;612778;231;65029;-72
2022/07/12 01:58:49;;;;;;;;;;;;;;;22.13;76.78;97355.06;612764;231;66740;-72
2022/07/12 02:01:17;;;;;;;;;;;;;;;22.13;76.72;97357.73;612766;231;66742;-72
2022/07/12 02:03:44;;;;;;;;;;;;;;;22.14;76.81;97353.98;612797;231;64839;-72
2022/07/12 02:06:12;;;;;;;;;;;;;;;22.13;76.75;97349.71;612730;231;66962;-72
2022/07/12 02:08:41;;;;;;;;;;;;;;;22.13;76.72;97358.54;612764;231;66836;-72
2022/07/12 02:11:08;;;;;;;;;;;;;;;22.13;76.85;97352.39;612736;231;65195;-72
2022/07/12 02:13:36;;;;;;;;;;;;;;;22.13;76.82;97349.71;612903;230;67069;-72
2022/07/12 02:16:04;;;;;;;;;;;;;;;22.12;76.79;97348.88;613158;231;66891;-72
2022/07/12 02:18:33;;;;;;;;;;;;;;;22.13;76.90;97347.83;613066;231;64863;-72
2022/07/12 02:21:01;;;;;;;;;;;;;;;22.13;76.87;97355.06;613085;231;67395;-72
2022/07/12 02:23:29;;;;;;;;;;;;;;;22.13;76.79;97357.73;613119;231;66847;-72
2022/07/12 02:25:56;;;;;;;;;;;;;;;22.13;76.85;97352.39;613105;231;64934;-72
2022/07/12 02:28:24;;;;;;;;;;;;;;;22.12;76.80;97354.23;613156;231;67077;-72
2022/07/12 02:30:51;;;;;;;;;;;;;;;22.10;76.73;97353.73;613128;231;67033;-72
2022/07/12 02:33:19;;;;;;;;;;;;;;;22.12;76.74;97350.77;613063;230;65452;-72
2022/07/12 02:35:47;;;;;;;;;;;;;;;22.12;76.77;97356.12;613142;231;66890;-72
2022/07/12 02:38:14;;;;;;;;;;;;;;;22.12;76.67;97350.77;613070;231;65062;-72
2022/07/12 02:40:54;;;;;;;;;;;;;;;22.12;76.68;97356.12;613158;231;62831;-72
2022/07/12 02:43:23;;;;;;;;;;;;;;;22.11;76.65;97354.52;613105;230;67130;-72
2022/07/12 02:45:52;;;;;;;;;;;;;;;22.11;76.64;97355.32;613104;231;66889;-68
2022/07/12 02:48:20;;;;;;;;;;;;;;;22.10;76.66;97355.61;613073;231;65035;-68
2022/07/12 02:50:47;;;;;;;;;;;;;;;22.10;76.54;97359.08;613126;231;64843;-68
2022/07/12 02:53:15;;;;;;;;;;;;;;;22.10;76.60;97352.93;613099;231;64631;-68
2022/07/12 02:55:42;;;;;;;;;;;;;;;22.10;76.55;97355.61;613171;231;62954;-68
2022/07/12 02:58:11;;;;;;;;;;;;;;;22.10;76.48;97360.96;613087;231;64530;-68
2022/07/12 03:00:39;;;;;;;;;;;;;;;22.10;76.54;97347.58;613103;231;66921;-68
2022/07/12 03:03:09;;;;;;;;;;;;;;;22.10;76.46;97358.28;613067;231;64867;-71
2022/07/12 03:05:37;;;;;;;;;;;;;;;22.10;76.48;97358.28;613115;231;67317;-71
2022/07/12 03:08:06;;;;;;;;;;;;;;;22.09;76.50;97354.78;613151;231;66962;-71
2022/07/12 03:10:33;;;;;;;;;;;;;;;22.09;76.40;97357.45;613068;231;63652;-72
2022/07/12 03:13:01;;;;;;;;;;;;;;;22.10;76.52;97363.64;613082;230;64842;-71
2022/07/12 03:15:29;;;;;;;;;;;;;;;22.10;76.50;97363.64;613078;231;66732;-71
2022/07/12 03:17:57;;;;;;;;;;;;;;;22.09;76.43;97365.48;613111;231;62952;-72
2022/07/12 03:20:25;;;;;;;;;;;;;;;22.09;76.55;97364.69;613182;231;64882;-72
2022/07/12 03:22:53;;;;;;;;;;;;;;;22.09;76.51;97372.72;613130;230;65641;-72
2022/07/12 03:25:21;;;;;;;;;;;;;;;22.08;76.46;97371.92;613102;231;64849;-72
2022/07/12 03:27:49;;;;;;;;;;;;;;;22.09;76.53;97373.52;613120;231;67194;-72
2022/07/12 03:30:16;;;;;;;;;;;;;;;22.09;76.50;97381.55;613132;231;67099;-72
2022/07/12 03:32:44;;;;;;;;;;;;;;;22.08;76.46;97371.92;613160;231;64932;-72
2022/07/12 03:35:12;;;;;;;;;;;;;;;22.09;76.47;97372.72;613124;231;64854;-72
2022/07/12 03:37:44;;;;;;;;;;;;;;;22.08;76.45;97377.27;613074;231;67064;-68
2022/07/12 03:40:12;;;;;;;;;;;;;;;22.08;76.44;97377.27;612931;230;64897;-69
2022/07/12 03:42:39;;;;;;;;;;;;;;;22.07;76.41;97367.66;613120;231;67312;-68
2022/07/12 03:45:07;;;;;;;;;;;;;;;22.07;76.38;97356.95;613158;231;64649;-69
2022/07/12 03:47:35;;;;;;;;;;;;;;;22.07;76.44;97373.00;613161;231;65041;-69
2022/07/12 03:50:04;;;;;;;;;;;;;;;22.07;76.47;97369.50;613089;231;64861;-68
2022/07/12 03:52:34;;;;;;;;;;;;;;;22.07;76.41;97366.83;613111;231;67339;-69
2022/07/12 03:55:04;;;;;;;;;;;;;;;22.08;76.48;97371.13;612993;231;64885;-68
2022/07/12 03:57:32;;;;;;;;;;;;;;;22.07;76.46;97369.50;613097;231;67122;-68
2022/07/12 03:59:59;;;;;;;;;;;;;;;22.07;76.43;97369.50;613181;231;66887;-68
2022/07/12 04:02:27;;;;;;;;;;;;;;;22.07;76.47;97372.17;613106;231;64892;-68
2022/07/12 04:04:54;;;;;;;;;;;;;;;22.07;76.39;97369.50;613093;231;67020;-68
2022/07/12 04:07:22;;;;;;;;;;;;;;;22.07;76.45;97374.86;613119;231;66880;-68
2022/07/12 04:09:49;;;;;;;;;;;;;;;22.06;76.44;97382.09;613150;231;62805;-68
2022/07/12 04:12:17;;;;;;;;;;;;;;;22.06;76.34;97374.05;613112;231;64575;-69
2022/07/12 04:14:44;;;;;;;;;;;;;;;22.06;76.42;97376.73;612762;231;66877;-68
2022/07/12 04:17:12;;;;;;;;;;;;;;;22.06;76.41;97381.29;612721;231;64867;-68
2022/07/12 04:19:39;;;;;;;;;;;;;;;22.05;76.35;97380.49;612730;231;65079;-68
2022/07/12 04:22:07;;;;;;;;;;;;;;;22.06;76.32;97383.97;612767;231;64860;-68
2022/07/12 04:24:34;;;;;;;;;;;;;;;22.06;76.29;97386.64;612808;231;64867;-68
2022/07/12 04:27:02;;;;;;;;;;;;;;;22.05;76.30;97391.20;612760;231;64834;-68
2022/07/12 04:29:29;;;;;;;;;;;;;;;22.05;76.30;97393.87;612760;231;67021;-68
2022/07/12 04:31:57;;;;;;;;;;;;;;;22.05;76.31;97399.23;612728;231;64829;-68
2022/07/12 04:34:24;;;;;;;;;;;;;;;22.05;76.24;97393.87;612764;231;67031;-68
2022/07/12 04:36:52;;;;;;;;;;;;;;;22.05;76.30;97396.55;612794;231;65668;-68
2022/07/12 04:39:19;;;;;;;;;;;;;;;22.05;76.28;97401.91;612770;231;62931;-68
2022/07/12 04:41:47;;;;;;;;;;;;;;;22.04;76.33;97391.45;612713;231;64848;-68
2022/07/12 04:44:14;;;;;;;;;;;;;;;22.05;76.31;97409.14;612902;231;65729;-72
2022/07/12 04:46:42;;;;;;;;;;;;;;;22.05;76.33;97398.43;612727;231;62793;-72
2022/07/12 04:49:09;;;;;;;;;;;;;;;22.05;76.38;97403.78;612809;231;67026;-72
2022/07/12 04:51:37;;;;;;;;;;;;;;;22.04;76.34;97410.98;612818;231;66993;-72
2022/07/12 04:54:04;;;;;;;;;;;;;;;22.04;76.30;97407.52;612750;231;64865;-72
2022/07/12 04:56:32;;;;;;;;;;;;;;;22.04;76.36;97402.16;612760;231;67058;-72
2022/07/12 04:59:00;;;;;;;;;;;;;;;22.05;76.39;97409.14;612742;231;66618;-72
2022/07/12 05:01:29;;;;;;;;;;;;;;;22.04;76.40;97408.31;612753;231;64960;-72
2022/07/12 05:03:57;;;;;;;;;;;;;;;22.03;76.42;97405.92;612693;231;67081;-72
2022/07/12 05:06:25;;;;;;;;;;;;;;;22.04;76.35;97402.16;612710;231;67190;-72
2022/07/12 05:08:53;;;;;;;;;;;;;;;22.04;76.40;97407.52;612747;231;65372;-72
2022/07/12 05:11:20;;;;;;;;;;;;;;;22.03;76.46;97401.36;612761;231;65777;-72
2022/07/12 05:13:48;;;;;;;;;;;;;;;22.03;76.44;97403.24;612920;231;64908;-72
2022/07/12 05:16:15;;;;;;;;;;;;;;;22.02;76.44;97402.44;613180;231;64898;-72
2022/07/12 05:18:43;;;;;;;;;;;;;;;22.02;76.44;97399.77;613118;231;67081;-72
2022/07/12 05:21:10;;;;;;;;;;;;;;;22.02;76.42;97405.12;613114;231;66842;-72
2022/07/12 05:23:39;;;;;;;;;;;;;;;22.03;76.41;97400.56;613160;231;64916;-72
2022/07/12 05:26:06;;;;;;;;;;;;;;;22.02;76.49;97405.12;613092;231;64376;-72
2022/07/12 05:28:34;;;;;;;;;;;;;;;22.02;76.51;97409.67;613157;231;64864;-72
2022/07/12 05:31:01;;;;;;;;;;;;;;;22.02;76.46;97407.80;613109;231;62728;-72
2022/07/12 05:33:29;;;;;;;;;;;;;;;22.01;76.50;97397.34;613057;229;64898;-72
2022/07/12 05:35:56;;;;;;;;;;;;;;;22.02;76.54;97399.77;613128;231;64833;-72
2022/07/12 05:38:24;;;;;;;;;;;;;;;22.01;76.45;97406.17;613077;231;64849;-72
2022/07/12 05:40:51;;;;;;;;;;;;;;;22.02;76.45;97401.64;613125;231;65864;-72
2022/07/12 05:43:19;;;;;;;;;;;;;;;22.01;76.44;97397.34;613134;230;66923;-72
2022/07/12 05:45:46;;;;;;;;;;;;;;;22.02;76.47;97396.30;613142;231;64889;-72
2022/07/12 05:48:15;;;;;;;;;;;;;;;22.01;76.40;97386.64;613139;231;64179;-72
2022/07/12 05:50:42;;;;;;;;;;;;;;;22.01;76.42;97392.79;613101;231;66691;-72
2022/07/12 05:53:22;;;;;;;;;;;;;;;22.00;76.37;97385.84;613112;231;65079;-72
2022/07/12 05:55:51;;;;;;;;;;;;;;;22.00;76.30;97385.84;613160;231;66789;-73
2022/07/12 05:58:19;;;;;;;;;;;;;;;22.01;76.30;97394.67;613135;231;66659;-73
2022/07/12 06:00:47;;;;;;;;;;;;;;;22.00;76.31;97390.40;613103;231;62839;-73
2022/07/12 06:03:15;;;;;;;;;;;;;;;22.00;76.35;97395.75;613120;231;66940;-73
2022/07/12 06:05:42;;;;;;;;;;;;;;;22.00;76.28;97396.55;613084;231;66630;-73
2022/07/12 06:08:10;;;;;;;;;;;;;;;21.99;76.32;97397.62;613063;231;66139;-73
2022/07/12 06:10:37;;;;;;;;;;;;;;;21.99;76.36;97397.62;613019;231;66809;-73
2022/07/12 06:13:05;;;;;;;;;;;;;;;22.00;76.63;97401.11;613058;231;64542;-68
2022/07/12 06:15:33;;;;;;;;;;;;;;;21.98;76.48;97393.33;613065;231;65933;-69
2022/07/12 06:18:01;;;;;;;;;;;;;;;21.97;76.52;97391.73;613067;230;67201;-69
2022/07/12 06:20:28;;;;;;;;;;;;;;;21.98;76.23;97395.21;613075;231;67453;-74
2022/07/12 06:22:56;;;;;;;;;;;;;;;21.99;76.19;97394.13;613108;231;65058;-74
2022/07/12 06:25:23;;;;;;;;;;;;;;;21.98;75.85;97392.53;613102;230;67313;-73
2022/07/12 06:27:51;;;;;;;;;;;;;;;21.99;75.85;97394.13;613103;231;67628;-73
2022/07/12 06:30:19;;;;;;;;;;;;;;;21.99;75.35;97391.45;613119;231;65173;-73
2022/07/12 06:32:47;;;;;;;;;;;;;;;21.99;75.40;97388.77;613067;231;64927;-71
2022/07/12 06:35:16;;;;;;;;;;;;;;;21.97;71.40;97386.38;613111;231;66885;-73
2022/07/12 06:37:43;;;;;;;;;;;;;;;22.01;69.63;97391.99;613145;231;65909;-73
2022/07/12 06:40:11;;;;;;;;;;;;;;;22.04;72.26;97380.75;606540;231;66912;-74
2022/07/12 06:42:39;;;;;;;;;;;;;;;22.03;73.42;97385.30;613094;231;66871;-73
2022/07/12 06:45:07;;;;;;;;;;;;;;;22.02;74.14;97380.23;612390;231;62857;-73
2022/07/12 06:47:34;;;;;;;;;;;;;;;22.03;74.88;97387.19;613121;231;67516;-73
2022/07/12 06:50:02;;;;;;;;;;;;;;;22.02;75.52;97378.36;615099;229;66958;-73
2022/07/12 06:52:30;;;;;;;;;;;;;;;22.02;75.94;97378.36;619917;229;64911;-73
2022/07/12 06:54:57;;;;;;;;;;;;;;;22.03;76.26;97387.19;620046;229;67069;-73
2022/07/12 06:57:29;;;;;;;;;;;;;;;22.02;76.45;97383.70;620078;229;67083;-73
2022/07/12 06:59:57;;;;;;;;;;;;;;;22.02;76.72;97385.59;619994;229;64887;-73
2022/07/12 07:02:25;;;;;;;;;;;;;;;22.02;76.88;97383.70;620144;229;67345;-73
2022/07/12 07:04:52;;;;;;;;;;;;;;;22.02;77.12;97381.03;620040;229;67038;-73
2022/07/12 07:07:20;;;;;;;;;;;;;;;22.03;77.17;97389.86;620029;229;63768;-73
2022/07/12 07:09:47;;;;;;;;;;;;;;;22.02;77.41;97382.91;620047;229;67060;-73
2022/07/12 07:12:14;;;;;;;;;;;;;;;22.02;77.49;97382.91;619989;229;66858;-73
2022/07/12 07:14:42;;;;;;;;;;;;;;;22.03;77.68;97389.86;620074;229;65166;-73
2022/07/12 07:17:09;;;;;;;;;;;;;;;22.03;77.74;97387.19;620050;229;67059;-70
2022/07/12 07:19:38;;;;;;;;;;;;;;;22.03;77.91;97390.66;620088;229;65587;-72
2022/07/12 07:22:05;;;;;;;;;;;;;;;22.04;77.86;97391.45;620023;229;62732;-71
2022/07/12 07:24:33;;;;;;;;;;;;;;;22.02;77.68;97390.94;620089;229;65041;-71
2022/07/12 07:27:00;;;;;;;;;;;;;;;22.03;77.63;97396.01;620058;229;67790;-69
2022/07/12 07:32:13;;;;;;;;;;;;;;;22.02;77.02;97402.44;620082;229;67219;-68
2022/07/12 07:34:41;;;;;;;;;;;;;;;22.01;76.64;97387.44;619983;229;67289;-73
2022/07/12 07:37:09;;;;;;;;;;;;;;;22.01;75.93;97394.67;620009;229;64876;-74
2022/07/12 07:39:37;;;;;;;;;;;;;;;22.01;75.54;97397.34;620095;229;67062;-73
2022/07/12 07:42:04;;;;;;;;;;;;;;;22.00;75.33;97385.84;620038;229;66873;-72
2022/07/12 07:44:32;;;;;;;;;;;;;;;22.00;72.99;97395.75;620015;229;65844;-71
2022/07/12 07:46:59;;;;;;;;;;;;;;;22.02;74.18;97405.12;620030;229;67071;-71
2022/07/12 07:49:27;;;;;;;;;;;;;;;22.02;74.48;97396.30;620006;229;66931;-70
2022/07/12 07:51:54;;;;;;;;;;;;;;;22.03;74.91;97404.03;620024;229;64863;-71
2022/07/12 07:54:22;;;;;;;;;;;;;;;22.03;75.28;97395.21;620119;229;66913;-73
2022/07/12 07:56:49;;;;;;;;;;;;;;;22.03;75.58;97395.21;619986;229;67133;-71
2022/07/12 07:59:17;;;;;;;;;;;;;;;22.02;75.58;97388.27;620001;229;64933;-69
2022/07/12 08:01:52;;;;;;;;;;;;;;;22.02;75.03;97388.27;620067;229;67259;-67
2022/07/12 08:04:18;;;;;;;;;;;;;;;22.02;74.90;97390.94;619709;229;64803;-69
2022/07/12 08:06:46;;;;;;;;;;;;;;;22.02;74.67;97393.62;620084;229;65070;-69
2022/07/12 08:09:17;;;;;;;;;;;;;;;22.01;74.60;97386.64;620017;229;67229;-69
2022/07/12 08:11:46;;;;;;;;;;;;;;;22.01;74.34;97391.99;619960;229;44944;-68
2022/07/12 08:14:14;;;;;;;;;;;;;;;22.00;74.37;97377.81;620039;229;65970;-68
2022/07/12 08:16:42;;;;;;;;;;;;;;;22.02;74.21;97382.91;620072;229;67076;-71
2022/07/12 08:19:09;;;;;;;;;;;;;;;22.00;74.18;97377.81;620017;229;66870;-72
2022/07/12 08:21:37;;;;;;;;;;;;;;;22.01;74.02;97381.29;620131;229;63728;-73
2022/07/12 08:24:04;;;;;;;;;;;;;;;22.00;74.27;97385.05;619996;229;67078;-72
2022/07/12 08:26:33;;;;;;;;;;;;;;;22.01;74.17;97378.61;620069;229;66858;-72
2022/07/12 08:29:01;;;;;;;;;;;;;;;22.00;74.24;97375.14;620019;229;64934;-72
2022/07/12 08:31:28;;;;;;;;;;;;;;;22.01;74.39;97382.08;619951;229;67068;-72
2022/07/12 08:33:56;;;;;;;;;;;;;;;22.01;74.35;97373.26;620102;229;66875;-72
2022/07/12 08:36:23;;;;;;;;;;;;;;;22.01;74.51;97384.77;620068;229;62756;-75
2022/07/12 08:38:51;;;;;;;;;;;;;;;22.01;74.42;97381.29;620022;229;67102;-73
2022/07/12 08:41:18;;;;;;;;;;;;;;;22.01;74.53;97378.61;620073;229;64556;-73
2022/07/12 08:43:46;;;;;;;;;;;;;;;22.01;74.61;97379.41;620038;229;62833;-72
2022/07/12 08:46:15;;;;;;;;;;;;;;;22.01;74.73;97367.91;619966;229;64921;-72
2022/07/12 08:48:43;;;;;;;;;;;;;;;22.02;74.68;97377.56;620019;229;67420;-73
2022/07/12 08:51:11;;;;;;;;;;;;;;;22.02;74.71;97380.23;620040;229;65006;-72
2022/07/12 08:53:39;;;;;;;;;;;;;;;22.01;74.78;97371.37;620028;229;64850;-72
2022/07/12 08:56:10;;;;;;;;;;;;;;;22.01;74.73;97359.88;619994;229;65153;-73
2022/07/12 08:58:39;;;;;;;;;;;;;;;22.01;74.83;97365.23;619085;229;62996;-73
2022/07/12 09:01:07;;;;;;;;;;;;;;;22.01;74.94;97363.35;619996;229;67075;-73
2022/07/12 09:03:34;;;;;;;;;;;;;;;22.01;74.89;97359.88;620083;229;66915;-72
2022/07/12 09:06:03;;;;;;;;;;;;;;;22.02;74.90;97366.86;619956;228;65210;-73
2022/07/12 09:08:35;;;;;;;;;;;;;;;22.01;74.83;97359.88;620109;228;64599;-70
2022/07/12 09:11:03;;;;;;;;;;;;;;;22.01;74.87;97360.67;620121;228;66953;-73
2022/07/12 09:13:47;;;;;;;;;;;;;;;22.01;74.97;97359.88;620171;228;63030;-72
2022/07/12 09:16:17;;;;;;;;;;;;;;;22.01;75.18;97355.32;620174;228;65306;-72
2022/07/12 09:18:45;;;;;;;;;;;;;;;22.02;75.49;97364.18;619671;228;66888;-72
2022/07/12 09:21:26;;;;;;;;;;;;;;;22.02;75.53;97356.16;620132;228;65054;-72
2022/07/12 09:23:54;;;;;;;;;;;;;;;22.02;75.67;97358.83;620184;228;67219;-73
2022/07/12 09:26:22;;;;;;;;;;;;;;;22.01;75.79;97349.17;620185;228;66876;-72
2022/07/12 09:28:50;;;;;;;;;;;;;;;22.01;75.92;97349.97;620200;228;64910;-72
2022/07/12 09:31:18;;;;;;;;;;;;;;;22.02;76.21;97345.45;620172;228;67044;-74
2022/07/12 09:36:33;;;;;;;;;;;;;;;22.01;76.48;97347.30;620126;228;65172;-71
2022/07/12 09:39:01;;;;;;;;;;;;;;;22.02;76.60;97356.16;620143;228;67057;-73
2022/07/12 09:41:29;;;;;;;;;;;;;;;22.02;76.48;97353.47;620190;228;64896;-73
2022/07/12 09:43:57;;;;;;;;;;;;;;;22.00;76.30;97352.94;620167;228;64928;-71
2022/07/12 09:46:24;;;;;;;;;;;;;;;22.00;76.13;97361.76;620126;228;67029;-74
2022/07/12 09:48:53;;;;;;;;;;;;;;;22.00;76.01;97350.26;620192;228;66977;-73
2022/07/12 09:51:21;;;;;;;;;;;;;;;22.00;76.00;97353.73;620262;228;65039;-68
2022/07/12 09:53:51;;;;;;;;;;;;;;;22.01;75.87;97349.17;620235;228;64883;-68
2022/07/12 09:56:22;;;;;;;;;;;;;;;22.00;75.84;97351.05;620296;228;65137;-68
2022/07/12 09:58:54;;;;;;;;;;;;;;;22.00;75.69;97353.73;620151;228;62754;-68
2022/07/12 10:01:23;;;;;;;;;;;;;;;22.00;75.70;97343.02;620204;228;66861;-68
2022/07/12 10:03:54;;;;;;;;;;;;;;;22.00;75.59;97342.23;620153;228;67271;-68
2022/07/12 10:06:26;;;;;;;;;;;;;;;22.00;75.59;97347.58;620172;228;64841;-68
2022/07/12 10:08:54;;;;;;;;;;;;;;;22.00;75.61;97347.58;620187;228;66742;-68
2022/07/12 10:11:23;;;;;;;;;;;;;;;22.00;75.34;97348.37;620184;228;66839;-68
2022/07/12 10:13:51;;;;;;;;;;;;;;;22.00;75.30;97353.73;620168;228;64985;-68
2022/07/12 10:16:27;;;;;;;;;;;;;;;22.00;75.15;97347.58;620159;228;44073;-70
2022/07/12 10:19:13;;;;;;;;;;;;;;;22.00;75.08;97343.02;620104;228;67045;-67
2022/07/12 10:21:40;;;;;;;;;;;;;;;21.99;75.19;97348.63;620215;228;62821;-68
2022/07/12 10:24:26;;;;;;;;;;;;;;;21.99;75.15;97348.63;620178;228;64550;-68
2022/07/12 10:26:53;;;;;;;;;;;;;;;21.98;74.97;97341.69;620142;228;64904;-68
2022/07/12 10:29:21;;;;;;;;;;;;;;;21.98;74.78;97339.81;620190;228;63014;-68
2022/07/12 10:31:49;;;;;;;;;;;;;;;21.99;74.60;97340.61;620132;228;67308;-68
2022/07/12 10:34:23;;;;;;;;;;;;;;;21.98;74.57;97349.72;620015;228;66923;-69
2022/07/12 10:36:59;;;;;;;;;;;;;;;21.98;74.61;97344.36;620102;228;64887;-68
2022/07/12 10:39:27;;;;;;;;;;;;;;;21.98;74.45;97355.87;620073;228;67108;-68
2022/07/12 10:42:09;;;;;;;;;;;;;;;21.98;74.44;97341.69;620163;228;66856;-70
2022/07/12 10:44:44;;;;;;;;;;;;;;;21.98;73.72;97341.69;620189;229;62862;-71
2022/07/12 10:47:14;;;;;;;;;;;;;;;21.98;73.96;97339.81;620094;229;67196;-71
2022/07/12 10:49:43;;;;;;;;;;;;;;;21.98;73.96;97330.98;620170;229;67241;-70
2022/07/12 10:52:13;;;;;;;;;;;;;;;22.00;73.77;97337.67;619961;229;64944;-70
2022/07/12 10:54:41;;;;;;;;;;;;;;;21.99;73.91;97333.41;620105;229;66939;-69
2022/07/12 10:57:09;;;;;;;;;;;;;;;21.99;74.36;97336.08;620163;229;64932;-69
2022/07/12 10:59:37;;;;;;;;;;;;;;;22.00;74.87;97332.32;620140;229;62809;-70
2022/07/12 11:02:05;;;;;;;;;;;;;;;22.01;75.23;97338.47;620089;229;64814;-69
2022/07/12 11:04:34;;;;;;;;;;;;;;;22.01;73.79;97338.47;620119;229;67049;-69
2022/07/12 11:07:02;;;;;;;;;;;;;;;22.01;74.88;97341.14;620081;229;65917;-69
2022/07/12 11:09:31;;;;;;;;;;;;;;;22.00;75.29;97344.91;620121;229;64886;-69
2022/07/12 11:11:58;;;;;;;;;;;;;;;22.00;75.52;97342.23;620188;229;66318;-69
2022/07/12 11:14:29;;;;;;;;;;;;;;;22.00;75.71;97342.23;620109;229;65134;-69
2022/07/12 11:16:57;;;;;;;;;;;;;;;21.99;75.86;97341.44;620078;229;66928;-69
2022/07/12 11:19:26;;;;;;;;;;;;;;;22.00;75.94;97347.58;618507;229;67070;-69
2022/07/12 11:21:58;;;;;;;;;;;;;;;21.99;76.02;97352.14;612982;231;65063;-70
2022/07/12 11:24:26;;;;;;;;;;;;;;;21.99;76.06;97352.14;613068;231;65455;-70
2022/07/12 11:26:53;;;;;;;;;;;;;;;21.99;76.06;97348.63;613046;231;66641;-69
2022/07/12 11:29:21;;;;;;;;;;;;;;;21.99;76.20;97349.46;612992;231;64901;-69
2022/07/12 11:31:49;;;;;;;;;;;;;;;21.99;76.21;97343.28;612978;231;66641;-69
2022/07/12 11:34:24;;;;;;;;;;;;;;;22.00;76.19;97352.94;613103;231;66714;-70
2022/07/12 11:36:53;;;;;;;;;;;;;;;21.99;76.25;97341.44;613057;231;62998;-69
2022/07/12 11:39:31;;;;;;;;;;;;;;;21.99;76.26;97351.31;613013;231;66512;-68
2022/07/12 11:41:59;;;;;;;;;;;;;;;22.00;76.21;97350.26;613091;231;66869;-68
2022/07/12 11:44:46;;;;;;;;;;;;;;;22.00;76.24;97347.58;612975;231;64908;-69
2022/07/12 11:47:14;;;;;;;;;;;;;;;21.99;76.36;97348.63;612987;231;67221;-68
2022/07/12 11:49:45;;;;;;;;;;;;;;;22.00;76.42;97350.26;613101;231;64844;-68
2022/07/12 11:52:14;;;;;;;;;;;;;;;21.99;76.63;97341.44;613102;231;64981;-67
2022/07/12 11:54:41;;;;;;;;;;;;;;;21.99;76.81;97335.25;613109;231;66980;-68
2022/07/12 11:57:09;;;;;;;;;;;;;;;21.99;76.92;97341.44;613089;231;64713;-68
2022/07/12 11:59:37;;;;;;;;;;;;;;;22.00;76.99;97331.52;612990;231;62774;-68
2022/07/12 12:02:08;;;;;;;;;;;;;;;21.99;77.05;97330.73;613126;231;64257;-68
2022/07/12 12:04:55;;;;;;;;;;;;;;;22.00;77.09;97332.32;613103;231;64453;-68
2022/07/12 12:07:23;;;;;;;;;;;;;;;21.99;77.25;97329.91;613111;231;63938;-68
2022/07/12 12:10:05;;;;;;;;;;;;;;;21.99;77.02;97336.08;613098;231;64610;-69
2022/07/12 12:12:39;;;;;;;;;;;;;;;21.99;76.89;97333.41;613010;231;66683;-68
2022/07/12 12:15:08;;;;;;;;;;;;;;;21.99;76.91;97337.93;612990;231;65225;-68
2022/07/12 12:17:36;;;;;;;;;;;;;;;21.99;76.81;97329.91;613077;231;64590;-70
2022/07/12 12:20:12;;;;;;;;;;;;;;;21.99;76.67;97324.55;613056;231;64431;-67
2022/07/12 12:22:39;;;;;;;;;;;;;;;21.99;76.93;97324.55;612737;231;64977;-69
2022/07/12 12:25:12;;;;;;;;;;;;;;;21.99;76.95;97325.37;613032;231;66836;-69
2022/07/12 12:27:38;;;;;;;;;;;;;;;21.99;77.05;97329.91;612838;231;67228;-70
2022/07/12 12:30:06;;;;;;;;;;;;;;;21.99;77.08;97325.37;613049;231;64950;-70
2022/07/12 12:32:35;;;;;;;;;;;;;;;21.99;77.13;97324.55;613024;231;66690;-69
2022/07/12 12:35:07;;;;;;;;;;;;;;;21.99;77.20;97324.55;607943;231;67056;-70
2022/07/12 12:37:35;;;;;;;;;;;;;;;21.99;77.24;97327.22;613104;231;63020;-72
2022/07/12 12:40:04;;;;;;;;;;;;;;;21.98;77.34;97321.08;613087;231;66782;-70
2022/07/12 12:42:31;;;;;;;;;;;;;;;21.99;77.31;97324.55;613048;231;64862;-72
2022/07/12 12:44:59;;;;;;;;;;;;;;;22.00;77.60;97328.84;612807;231;62847;-70
2022/07/12 12:47:34;;;;;;;;;;;;;;;21.99;77.69;97314.67;612987;231;64537;-75
2022/07/12 12:50:01;;;;;;;;;;;;;;;22.00;77.74;97320.81;613034;231;64704;-73
2022/07/12 12:52:30;;;;;;;;;;;;;;;22.00;77.80;97320.81;612826;231;64889;-74
2022/07/12 12:54:58;;;;;;;;;;;;;;;22.00;77.80;97329.64;612930;231;66493;-73
2022/07/12 12:57:26;;;;;;;;;;;;;;;21.99;77.84;97325.37;613033;231;66721;-72
2022/07/12 12:59:52;;;;;;;;;;;;;;;;;;612822;231;62756;-71